sensor_id;sensor_type;location;lat;lon;timestamp;temperature;humidity
41256;DHT22;26989;45.524;10.938;2023-03-19T00:00:26;7.60;99.90
41256;DHT22;26989;45.524;10.938;2023-03-19T00:02:53;7.60;99.90
41256;DHT22;26989;45.524;10.938;2023-03-19T00:05:21;7.50;99.90
41256;DHT22;26989;45.524;10.938;2023-03-19T00:07:48;7.50;99.90
41256;DHT22;26989;45.524;10.938;2023-03-19T00:10:14;7.50;99.90
41256;DHT22;26989;45.524;10.938;2023-03-19T00:12:41;7.50;99.90
41256;DHT22;26989;45.524;10.938;2023-03-19T00:15:09;7.50;99.90
41256;DHT22;26989;45.524;10.938;2023-03-19T00:17:40;7.50;99.90
41256;DHT22;26989;45.524;10.938;2023-03-19T00:20:10;7.40;99.90
41256;DHT22;26989;45.524;10.938;2023-03-19T00:22:38;7.30;99.90
41256;DHT22;26989;45.524;10.938;2023-03-19T00:25:06;7.30;99.90
41256;DHT22;26989;45.524;10.938;2023-03-19T00:27:34;7.30;99.90
41256;DHT22;26989;45.524;10.938;2023-03-19T00:30:03;7.20;99.90
41256;DHT22;26989;45.524;10.938;2023-03-19T00:32:30;7.20;99.90
41256;DHT22;26989;45.524;10.938;2023-03-19T00:34:59;7.30;99.90
41256;DHT22;26989;45.524;10.938;2023-03-19T00:37:26;7.30;99.90
41256;DHT22;26989;45.524;10.938;2023-03-19T00:39:53;7.20;99.90
41256;DHT22;26989;45.524;10.938;2023-03-19T00:42:19;7.20;99.90
41256;DHT22;26989;45.524;10.938;2023-03-19T00:44:46;7.20;99.90
41256;DHT22;26989;45.524;10.938;2023-03-19T00:47:13;7.20;99.90
41256;DHT22;26989;45.524;10.938;2023-03-19T00:49:40;7.20;99.90
41256;DHT22;26989;45.524;10.938;2023-03-19T00:52:07;7.20;99.90
41256;DHT22;26989;45.524;10.938;2023-03-19T00:54:34;7.10;99.90
41256;DHT22;26989;45.524;10.938;2023-03-19T00:57:01;7.20;99.90
41256;DHT22;26989;45.524;10.938;2023-03-19T00:59:28;7.20;99.90
41256;DHT22;26989;45.524;10.938;2023-03-19T01:01:55;7.20;99.90
41256;DHT22;26989;45.524;10.938;2023-03-19T01:04:22;7.30;99.90
41256;DHT22;26989;45.524;10.938;2023-03-19T01:06:49;7.30;99.90
41256;DHT22;26989;45.524;10.938;2023-03-19T01:09:16;7.30;99.90
41256;DHT22;26989;45.524;10.938;2023-03-19T01:11:43;7.30;99.90
41256;DHT22;26989;45.524;10.938;2023-03-19T01:14:10;7.30;99.90
41256;DHT22;26989;45.524;10.938;2023-03-19T01:16:37;7.30;99.90
41256;DHT22;26989;45.524;10.938;2023-03-19T01:19:04;7.30;99.90
41256;DHT22;26989;45.524;10.938;2023-03-19T01:21:31;7.40;99.90
41256;DHT22;26989;45.524;10.938;2023-03-19T01:23:59;7.60;99.90
41256;DHT22;26989;45.524;10.938;2023-03-19T01:26:26;7.70;99.90
41256;DHT22;26989;45.524;10.938;2023-03-19T01:28:53;7.90;99.90
41256;DHT22;26989;45.524;10.938;2023-03-19T01:31:20;7.90;99.90
41256;DHT22;26989;45.524;10.938;2023-03-19T01:33:47;7.90;99.90
41256;DHT22;26989;45.524;10.938;2023-03-19T01:36:14;7.90;99.90
41256;DHT22;26989;45.524;10.938;2023-03-19T01:38:41;7.90;99.90
41256;DHT22;26989;45.524;10.938;2023-03-19T01:41:08;7.90;99.90
41256;DHT22;26989;45.524;10.938;2023-03-19T01:43:35;7.90;99.90
41256;DHT22;26989;45.524;10.938;2023-03-19T01:46:27;7.80;99.90
41256;DHT22;26989;45.524;10.938;2023-03-19T01:49:02;7.80;99.90
41256;DHT22;26989;45.524;10.938;2023-03-19T01:51:42;7.80;99.90
41256;DHT22;26989;45.524;10.938;2023-03-19T01:54:14;7.70;99.90
41256;DHT22;26989;45.524;10.938;2023-03-19T01:56:43;7.80;99.90
41256;DHT22;26989;45.524;10.938;2023-03-19T01:59:14;7.80;99.90
41256;DHT22;26989;45.524;10.938;2023-03-19T02:01:49;7.90;99.90
41256;DHT22;26989;45.524;10.938;2023-03-19T02:04:18;8.00;99.90
41256;DHT22;26989;45.524;10.938;2023-03-19T02:06:45;8.00;99.90
41256;DHT22;26989;45.524;10.938;2023-03-19T02:09:14;7.90;99.90
41256;DHT22;26989;45.524;10.938;2023-03-19T02:11:41;7.90;99.90
41256;DHT22;26989;45.524;10.938;2023-03-19T02:14:08;8.00;99.90
41256;DHT22;26989;45.524;10.938;2023-03-19T02:16:35;8.00;99.90
41256;DHT22;26989;45.524;10.938;2023-03-19T02:19:04;8.00;99.90
41256;DHT22;26989;45.524;10.938;2023-03-19T02:21:32;8.00;99.90
41256;DHT22;26989;45.524;10.938;2023-03-19T02:24:01;8.00;99.90
41256;DHT22;26989;45.524;10.938;2023-03-19T02:26:29;8.00;99.90
41256;DHT22;26989;45.524;10.938;2023-03-19T02:28:57;8.00;99.90
41256;DHT22;26989;45.524;10.938;2023-03-19T02:31:24;8.00;99.90
41256;DHT22;26989;45.524;10.938;2023-03-19T02:34:47;8.00;99.90
41256;DHT22;26989;45.524;10.938;2023-03-19T02:36:59;7.90;99.90
41256;DHT22;26989;45.524;10.938;2023-03-19T02:39:43;7.80;99.90
41256;DHT22;26989;45.524;10.938;2023-03-19T02:42:13;7.70;99.90
41256;DHT22;26989;45.524;10.938;2023-03-19T02:44:41;7.70;99.90
41256;DHT22;26989;45.524;10.938;2023-03-19T02:47:08;7.70;99.90
41256;DHT22;26989;45.524;10.938;2023-03-19T02:49:35;7.70;99.90
41256;DHT22;26989;45.524;10.938;2023-03-19T02:52:02;7.60;99.90
41256;DHT22;26989;45.524;10.938;2023-03-19T02:54:29;7.60;99.90
41256;DHT22;26989;45.524;10.938;2023-03-19T02:56:56;7.50;99.90
41256;DHT22;26989;45.524;10.938;2023-03-19T02:59:23;7.40;99.90
41256;DHT22;26989;45.524;10.938;2023-03-19T03:01:50;7.40;99.90
41256;DHT22;26989;45.524;10.938;2023-03-19T03:04:17;7.50;99.90
41256;DHT22;26989;45.524;10.938;2023-03-19T03:06:44;7.50;99.90
41256;DHT22;26989;45.524;10.938;2023-03-19T03:09:11;7.50;99.90
41256;DHT22;26989;45.524;10.938;2023-03-19T03:11:39;7.40;99.90
41256;DHT22;26989;45.524;10.938;2023-03-19T03:14:09;7.40;99.90
41256;DHT22;26989;45.524;10.938;2023-03-19T03:16:36;7.40;99.90
41256;DHT22;26989;45.524;10.938;2023-03-19T03:19:04;7.40;99.90
41256;DHT22;26989;45.524;10.938;2023-03-19T03:21:31;7.40;99.90
41256;DHT22;26989;45.524;10.938;2023-03-19T03:24:01;7.50;99.90
41256;DHT22;26989;45.524;10.938;2023-03-19T03:26:28;7.50;99.90
41256;DHT22;26989;45.524;10.938;2023-03-19T03:28:54;7.50;99.90
41256;DHT22;26989;45.524;10.938;2023-03-19T03:31:21;7.50;99.90
41256;DHT22;26989;45.524;10.938;2023-03-19T03:33:49;7.50;99.90
41256;DHT22;26989;45.524;10.938;2023-03-19T03:36:16;7.60;99.90
41256;DHT22;26989;45.524;10.938;2023-03-19T03:38:43;7.60;99.90
41256;DHT22;26989;45.524;10.938;2023-03-19T03:41:10;7.60;99.90
41256;DHT22;26989;45.524;10.938;2023-03-19T03:43:37;7.70;99.90
41256;DHT22;26989;45.524;10.938;2023-03-19T03:46:05;7.70;99.90
41256;DHT22;26989;45.524;10.938;2023-03-19T03:48:34;7.80;99.90
41256;DHT22;26989;45.524;10.938;2023-03-19T03:51:01;7.80;99.90
41256;DHT22;26989;45.524;10.938;2023-03-19T03:53:28;7.80;99.90
41256;DHT22;26989;45.524;10.938;2023-03-19T03:55:55;7.80;99.90
41256;DHT22;26989;45.524;10.938;2023-03-19T03:58:22;7.90;99.90
41256;DHT22;26989;45.524;10.938;2023-03-19T04:00:49;8.00;99.90
41256;DHT22;26989;45.524;10.938;2023-03-19T04:03:17;8.00;99.90
41256;DHT22;26989;45.524;10.938;2023-03-19T04:05:44;8.00;99.90
41256;DHT22;26989;45.524;10.938;2023-03-19T04:08:12;8.00;99.90
41256;DHT22;26989;45.524;10.938;2023-03-19T04:10:40;8.00;99.90
41256;DHT22;26989;45.524;10.938;2023-03-19T04:13:08;8.00;99.90
41256;DHT22;26989;45.524;10.938;2023-03-19T04:15:35;8.00;99.90
41256;DHT22;26989;45.524;10.938;2023-03-19T04:18:02;8.10;99.90
41256;DHT22;26989;45.524;10.938;2023-03-19T04:20:29;8.10;99.90
41256;DHT22;26989;45.524;10.938;2023-03-19T04:22:56;8.10;99.90
41256;DHT22;26989;45.524;10.938;2023-03-19T04:25:23;8.10;99.90
41256;DHT22;26989;45.524;10.938;2023-03-19T04:27:50;8.10;99.90
41256;DHT22;26989;45.524;10.938;2023-03-19T04:30:18;8.10;99.90
41256;DHT22;26989;45.524;10.938;2023-03-19T04:32:45;8.10;99.90
41256;DHT22;26989;45.524;10.938;2023-03-19T04:35:13;8.10;99.90
41256;DHT22;26989;45.524;10.938;2023-03-19T04:37:40;8.20;99.90
41256;DHT22;26989;45.524;10.938;2023-03-19T04:40:09;8.20;99.90
41256;DHT22;26989;45.524;10.938;2023-03-19T04:42:36;8.20;99.90
41256;DHT22;26989;45.524;10.938;2023-03-19T04:45:03;8.20;99.90
41256;DHT22;26989;45.524;10.938;2023-03-19T04:47:30;8.20;99.90
41256;DHT22;26989;45.524;10.938;2023-03-19T04:49:57;8.10;99.90
41256;DHT22;26989;45.524;10.938;2023-03-19T04:52:24;8.10;99.90
41256;DHT22;26989;45.524;10.938;2023-03-19T04:54:51;8.00;99.90
41256;DHT22;26989;45.524;10.938;2023-03-19T04:57:17;8.00;99.90
41256;DHT22;26989;45.524;10.938;2023-03-19T04:59:44;7.90;99.90
41256;DHT22;26989;45.524;10.938;2023-03-19T05:02:12;7.90;99.90
41256;DHT22;26989;45.524;10.938;2023-03-19T05:04:39;7.90;99.90
41256;DHT22;26989;45.524;10.938;2023-03-19T05:07:05;7.90;99.90
41256;DHT22;26989;45.524;10.938;2023-03-19T05:09:32;7.80;99.90
41256;DHT22;26989;45.524;10.938;2023-03-19T05:11:59;7.70;99.90
41256;DHT22;26989;45.524;10.938;2023-03-19T05:14:26;7.60;99.90
41256;DHT22;26989;45.524;10.938;2023-03-19T05:16:53;7.50;99.90
41256;DHT22;26989;45.524;10.938;2023-03-19T05:19:20;7.50;99.90
41256;DHT22;26989;45.524;10.938;2023-03-19T05:21:47;7.50;99.90
41256;DHT22;26989;45.524;10.938;2023-03-19T05:24:14;7.40;99.90
41256;DHT22;26989;45.524;10.938;2023-03-19T05:26:41;7.40;99.90
41256;DHT22;26989;45.524;10.938;2023-03-19T05:29:09;7.30;99.90
41256;DHT22;26989;45.524;10.938;2023-03-19T05:31:37;7.40;99.90
41256;DHT22;26989;45.524;10.938;2023-03-19T05:34:04;7.30;99.90
41256;DHT22;26989;45.524;10.938;2023-03-19T05:36:31;7.30;99.90
41256;DHT22;26989;45.524;10.938;2023-03-19T05:38:58;7.30;99.90
41256;DHT22;26989;45.524;10.938;2023-03-19T05:41:25;7.20;99.90
41256;DHT22;26989;45.524;10.938;2023-03-19T05:43:52;7.20;99.90
41256;DHT22;26989;45.524;10.938;2023-03-19T05:46:19;7.20;99.90
41256;DHT22;26989;45.524;10.938;2023-03-19T05:48:46;7.10;99.90
41256;DHT22;26989;45.524;10.938;2023-03-19T05:51:13;7.00;99.90
41256;DHT22;26989;45.524;10.938;2023-03-19T05:53:40;7.00;99.90
41256;DHT22;26989;45.524;10.938;2023-03-19T05:56:07;7.10;99.90
41256;DHT22;26989;45.524;10.938;2023-03-19T05:58:34;7.10;99.90
41256;DHT22;26989;45.524;10.938;2023-03-19T06:01:01;7.10;99.90
41256;DHT22;26989;45.524;10.938;2023-03-19T06:03:28;7.20;99.90
41256;DHT22;26989;45.524;10.938;2023-03-19T06:05:56;7.20;99.90
41256;DHT22;26989;45.524;10.938;2023-03-19T06:08:23;7.20;99.90
41256;DHT22;26989;45.524;10.938;2023-03-19T06:10:51;7.20;99.90
41256;DHT22;26989;45.524;10.938;2023-03-19T06:13:18;7.30;99.90
41256;DHT22;26989;45.524;10.938;2023-03-19T06:15:47;7.30;99.90
41256;DHT22;26989;45.524;10.938;2023-03-19T06:18:15;7.40;99.90
41256;DHT22;26989;45.524;10.938;2023-03-19T06:20:43;7.50;99.90
41256;DHT22;26989;45.524;10.938;2023-03-19T06:23:09;7.60;99.90
41256;DHT22;26989;45.524;10.938;2023-03-19T06:25:36;7.80;99.90
41256;DHT22;26989;45.524;10.938;2023-03-19T06:28:04;7.90;99.90
41256;DHT22;26989;45.524;10.938;2023-03-19T06:30:32;8.00;99.90
41256;DHT22;26989;45.524;10.938;2023-03-19T06:32:59;8.10;99.90
41256;DHT22;26989;45.524;10.938;2023-03-19T06:35:26;8.20;99.90
41256;DHT22;26989;45.524;10.938;2023-03-19T06:37:53;8.30;99.90
41256;DHT22;26989;45.524;10.938;2023-03-19T06:40:21;8.30;99.90
41256;DHT22;26989;45.524;10.938;2023-03-19T06:42:48;8.30;99.90
41256;DHT22;26989;45.524;10.938;2023-03-19T06:45:15;8.30;99.90
41256;DHT22;26989;45.524;10.938;2023-03-19T06:47:45;8.40;99.90
41256;DHT22;26989;45.524;10.938;2023-03-19T06:50:14;8.40;99.90
41256;DHT22;26989;45.524;10.938;2023-03-19T06:52:42;8.50;99.90
41256;DHT22;26989;45.524;10.938;2023-03-19T06:55:09;8.60;99.90
41256;DHT22;26989;45.524;10.938;2023-03-19T06:57:37;8.70;99.90
41256;DHT22;26989;45.524;10.938;2023-03-19T07:00:05;8.60;99.90
41256;DHT22;26989;45.524;10.938;2023-03-19T07:02:32;8.50;99.90
41256;DHT22;26989;45.524;10.938;2023-03-19T07:04:59;8.30;99.90
41256;DHT22;26989;45.524;10.938;2023-03-19T07:07:26;8.30;99.90
41256;DHT22;26989;45.524;10.938;2023-03-19T07:09:53;8.20;99.90
41256;DHT22;26989;45.524;10.938;2023-03-19T07:12:19;8.20;99.90
41256;DHT22;26989;45.524;10.938;2023-03-19T07:14:46;8.40;99.90
41256;DHT22;26989;45.524;10.938;2023-03-19T07:17:13;8.70;99.90
41256;DHT22;26989;45.524;10.938;2023-03-19T07:19:40;8.80;99.90
41256;DHT22;26989;45.524;10.938;2023-03-19T07:22:07;8.60;99.90
41256;DHT22;26989;45.524;10.938;2023-03-19T07:24:34;8.70;99.90
41256;DHT22;26989;45.524;10.938;2023-03-19T07:27:01;8.80;99.90
41256;DHT22;26989;45.524;10.938;2023-03-19T07:29:28;9.00;99.90
41256;DHT22;26989;45.524;10.938;2023-03-19T07:31:55;9.40;99.90
41256;DHT22;26989;45.524;10.938;2023-03-19T07:34:23;9.40;99.90
41256;DHT22;26989;45.524;10.938;2023-03-19T07:36:49;9.10;99.90
41256;DHT22;26989;45.524;10.938;2023-03-19T07:39:17;9.50;99.90
41256;DHT22;26989;45.524;10.938;2023-03-19T07:41:44;9.90;99.90
41256;DHT22;26989;45.524;10.938;2023-03-19T07:44:14;9.50;99.90
41256;DHT22;26989;45.524;10.938;2023-03-19T07:46:42;9.40;99.90
41256;DHT22;26989;45.524;10.938;2023-03-19T07:49:09;9.50;99.90
41256;DHT22;26989;45.524;10.938;2023-03-19T07:51:36;9.40;99.90
41256;DHT22;26989;45.524;10.938;2023-03-19T07:54:03;9.40;99.90
41256;DHT22;26989;45.524;10.938;2023-03-19T07:56:30;9.60;99.90
41256;DHT22;26989;45.524;10.938;2023-03-19T07:58:57;9.80;99.90
41256;DHT22;26989;45.524;10.938;2023-03-19T08:01:25;9.80;99.90
41256;DHT22;26989;45.524;10.938;2023-03-19T08:03:52;9.90;99.90
41256;DHT22;26989;45.524;10.938;2023-03-19T08:06:19;9.90;99.90
41256;DHT22;26989;45.524;10.938;2023-03-19T08:08:46;10.10;99.90
41256;DHT22;26989;45.524;10.938;2023-03-19T08:11:13;10.40;99.90
41256;DHT22;26989;45.524;10.938;2023-03-19T08:13:41;10.50;99.90
41256;DHT22;26989;45.524;10.938;2023-03-19T08:16:08;10.90;99.90
41256;DHT22;26989;45.524;10.938;2023-03-19T08:18:35;11.00;99.90
41256;DHT22;26989;45.524;10.938;2023-03-19T08:21:03;11.20;99.90
41256;DHT22;26989;45.524;10.938;2023-03-19T08:23:30;11.10;99.90
41256;DHT22;26989;45.524;10.938;2023-03-19T08:25:57;10.80;99.90
41256;DHT22;26989;45.524;10.938;2023-03-19T08:28:24;10.80;99.90
41256;DHT22;26989;45.524;10.938;2023-03-19T08:30:51;10.70;99.90
41256;DHT22;26989;45.524;10.938;2023-03-19T08:33:18;10.60;99.90
41256;DHT22;26989;45.524;10.938;2023-03-19T08:35:45;10.90;99.90
41256;DHT22;26989;45.524;10.938;2023-03-19T08:38:12;10.90;99.90
41256;DHT22;26989;45.524;10.938;2023-03-19T08:40:39;10.90;99.90
41256;DHT22;26989;45.524;10.938;2023-03-19T08:43:06;11.10;99.90
41256;DHT22;26989;45.524;10.938;2023-03-19T08:45:32;11.10;99.90
41256;DHT22;26989;45.524;10.938;2023-03-19T08:47:59;11.30;99.90
41256;DHT22;26989;45.524;10.938;2023-03-19T08:50:26;11.60;99.90
41256;DHT22;26989;45.524;10.938;2023-03-19T08:52:53;11.80;99.90
41256;DHT22;26989;45.524;10.938;2023-03-19T08:55:21;11.80;99.90
41256;DHT22;26989;45.524;10.938;2023-03-19T08:57:48;11.60;99.90
41256;DHT22;26989;45.524;10.938;2023-03-19T09:00:15;11.90;99.90
41256;DHT22;26989;45.524;10.938;2023-03-19T09:02:42;12.30;99.90
41256;DHT22;26989;45.524;10.938;2023-03-19T09:05:09;12.40;99.90
41256;DHT22;26989;45.524;10.938;2023-03-19T09:07:36;12.50;99.90
41256;DHT22;26989;45.524;10.938;2023-03-19T09:10:03;12.70;99.90
41256;DHT22;26989;45.524;10.938;2023-03-19T09:12:30;12.70;99.90
41256;DHT22;26989;45.524;10.938;2023-03-19T09:14:57;12.80;99.90
41256;DHT22;26989;45.524;10.938;2023-03-19T09:17:23;13.00;99.90
41256;DHT22;26989;45.524;10.938;2023-03-19T09:19:50;12.80;99.90
41256;DHT22;26989;45.524;10.938;2023-03-19T09:22:17;12.40;99.90
41256;DHT22;26989;45.524;10.938;2023-03-19T09:24:44;12.20;99.90
41256;DHT22;26989;45.524;10.938;2023-03-19T09:27:11;12.60;99.90
41256;DHT22;26989;45.524;10.938;2023-03-19T09:29:38;13.00;99.90
41256;DHT22;26989;45.524;10.938;2023-03-19T09:32:05;13.10;99.90
41256;DHT22;26989;45.524;10.938;2023-03-19T09:34:32;13.30;99.90
41256;DHT22;26989;45.524;10.938;2023-03-19T09:36:58;13.30;99.80
41256;DHT22;26989;45.524;10.938;2023-03-19T09:39:25;13.10;99.60
41256;DHT22;26989;45.524;10.938;2023-03-19T09:42:09;13.20;99.70
41256;DHT22;26989;45.524;10.938;2023-03-19T09:44:42;13.40;99.40
41256;DHT22;26989;45.524;10.938;2023-03-19T09:47:30;13.60;99.00
41256;DHT22;26989;45.524;10.938;2023-03-19T09:50:20;13.50;98.90
41256;DHT22;26989;45.524;10.938;2023-03-19T09:53:38;13.60;98.80
41256;DHT22;26989;45.524;10.938;2023-03-19T09:55:57;13.70;99.00
41256;DHT22;26989;45.524;10.938;2023-03-19T09:58:30;13.80;98.50
41256;DHT22;26989;45.524;10.938;2023-03-19T10:00:58;13.90;98.80
41256;DHT22;26989;45.524;10.938;2023-03-19T10:03:39;14.10;98.60
41256;DHT22;26989;45.524;10.938;2023-03-19T10:11:56;14.00;98.10
41256;DHT22;26989;45.524;10.938;2023-03-19T10:15:09;13.90;98.20
41256;DHT22;26989;45.524;10.938;2023-03-19T10:17:37;13.80;98.30
41256;DHT22;26989;45.524;10.938;2023-03-19T10:20:13;14.00;98.10
41256;DHT22;26989;45.524;10.938;2023-03-19T10:22:46;14.30;97.90
41256;DHT22;26989;45.524;10.938;2023-03-19T10:25:20;14.50;97.60
41256;DHT22;26989;45.524;10.938;2023-03-19T10:27:58;14.70;97.20
41256;DHT22;26989;45.524;10.938;2023-03-19T10:30:27;14.70;96.50
41256;DHT22;26989;45.524;10.938;2023-03-19T10:33:18;15.00;96.00
41256;DHT22;26989;45.524;10.938;2023-03-19T10:35:57;15.40;95.70
41256;DHT22;26989;45.524;10.938;2023-03-19T10:38:25;15.70;95.30
41256;DHT22;26989;45.524;10.938;2023-03-19T10:44:02;15.70;94.30
41256;DHT22;26989;45.524;10.938;2023-03-19T10:46:40;15.70;94.60
41256;DHT22;26989;45.524;10.938;2023-03-19T10:49:12;15.60;94.50
41256;DHT22;26989;45.524;10.938;2023-03-19T10:51:42;15.60;94.60
41256;DHT22;26989;45.524;10.938;2023-03-19T10:54:24;15.40;94.50
41256;DHT22;26989;45.524;10.938;2023-03-19T10:56:55;15.50;94.40
41256;DHT22;26989;45.524;10.938;2023-03-19T10:59:35;15.50;94.10
41256;DHT22;26989;45.524;10.938;2023-03-19T11:02:19;15.40;94.50
41256;DHT22;26989;45.524;10.938;2023-03-19T11:04:46;15.20;94.50
41256;DHT22;26989;45.524;10.938;2023-03-19T11:07:18;15.10;94.70
41256;DHT22;26989;45.524;10.938;2023-03-19T11:09:48;15.00;94.50
41256;DHT22;26989;45.524;10.938;2023-03-19T11:12:20;15.00;94.70
41256;DHT22;26989;45.524;10.938;2023-03-19T11:14:51;14.80;94.90
41256;DHT22;26989;45.524;10.938;2023-03-19T11:17:38;14.80;95.10
41256;DHT22;26989;45.524;10.938;2023-03-19T11:20:37;14.90;95.00
41256;DHT22;26989;45.524;10.938;2023-03-19T11:23:11;14.80;94.90
41256;DHT22;26989;45.524;10.938;2023-03-19T11:25:42;14.70;95.00
41256;DHT22;26989;45.524;10.938;2023-03-19T11:36:08;14.30;95.30
41256;DHT22;26989;45.524;10.938;2023-03-19T11:38:47;14.60;95.40
41256;DHT22;26989;45.524;10.938;2023-03-19T11:41:37;14.60;95.10
41256;DHT22;26989;45.524;10.938;2023-03-19T11:44:16;14.60;95.20
41256;DHT22;26989;45.524;10.938;2023-03-19T11:47:04;14.60;95.30
41256;DHT22;26989;45.524;10.938;2023-03-19T11:58:07;14.50;94.10
41256;DHT22;26989;45.524;10.938;2023-03-19T12:00:49;14.50;94.80
41256;DHT22;26989;45.524;10.938;2023-03-19T12:11:29;14.70;94.70
41256;DHT22;26989;45.524;10.938;2023-03-19T12:30:36;15.60;92.20
41256;DHT22;26989;45.524;10.938;2023-03-19T12:33:15;15.50;92.50
41256;DHT22;26989;45.524;10.938;2023-03-19T12:35:49;15.50;92.10
41256;DHT22;26989;45.524;10.938;2023-03-19T12:38:26;15.80;92.20
41256;DHT22;26989;45.524;10.938;2023-03-19T12:40:59;16.10;91.80
41256;DHT22;26989;45.524;10.938;2023-03-19T12:43:51;16.20;91.70
41256;DHT22;26989;45.524;10.938;2023-03-19T12:51:45;16.70;90.90
41256;DHT22;26989;45.524;10.938;2023-03-19T12:54:19;16.60;90.80
41256;DHT22;26989;45.524;10.938;2023-03-19T12:57:07;16.60;90.50
41256;DHT22;26989;45.524;10.938;2023-03-19T13:08:32;16.90;90.50
41256;DHT22;26989;45.524;10.938;2023-03-19T13:10:39;17.30;90.10
41256;DHT22;26989;45.524;10.938;2023-03-19T13:13:41;17.10;90.20
41256;DHT22;26989;45.524;10.938;2023-03-19T13:16:32;17.40;90.20
41256;DHT22;26989;45.524;10.938;2023-03-19T13:21:37;17.10;90.40
41256;DHT22;26989;45.524;10.938;2023-03-19T13:24:25;17.30;90.10
41256;DHT22;26989;45.524;10.938;2023-03-19T13:26:54;17.10;89.70
41256;DHT22;26989;45.524;10.938;2023-03-19T13:29:24;17.10;90.10
41256;DHT22;26989;45.524;10.938;2023-03-19T13:31:52;17.10;90.10
41256;DHT22;26989;45.524;10.938;2023-03-19T13:34:26;17.30;90.10
41256;DHT22;26989;45.524;10.938;2023-03-19T13:39:27;17.90;89.30
41256;DHT22;26989;45.524;10.938;2023-03-19T13:42:08;18.00;89.30
41256;DHT22;26989;45.524;10.938;2023-03-19T13:44:48;18.00;89.20
41256;DHT22;26989;45.524;10.938;2023-03-19T13:50:21;17.70;89.40
41256;DHT22;26989;45.524;10.938;2023-03-19T13:52:52;17.60;90.00
41256;DHT22;26989;45.524;10.938;2023-03-19T13:55:31;17.50;89.40
41256;DHT22;26989;45.524;10.938;2023-03-19T14:03:28;16.90;90.60
41256;DHT22;26989;45.524;10.938;2023-03-19T14:05:57;17.00;90.50
41256;DHT22;26989;45.524;10.938;2023-03-19T14:11:01;17.00;90.10
41256;DHT22;26989;45.524;10.938;2023-03-19T14:13:33;17.00;90.30
41256;DHT22;26989;45.524;10.938;2023-03-19T14:16:17;17.20;89.70
41256;DHT22;26989;45.524;10.938;2023-03-19T14:18:46;17.30;90.00
41256;DHT22;26989;45.524;10.938;2023-03-19T14:27:38;17.00;90.40
41256;DHT22;26989;45.524;10.938;2023-03-19T14:30:14;17.10;90.40
41256;DHT22;26989;45.524;10.938;2023-03-19T14:32:44;17.00;90.40
41256;DHT22;26989;45.524;10.938;2023-03-19T14:35:16;16.90;90.20
41256;DHT22;26989;45.524;10.938;2023-03-19T14:37:49;17.00;90.20
41256;DHT22;26989;45.524;10.938;2023-03-19T14:40:22;16.80;90.10
41256;DHT22;26989;45.524;10.938;2023-03-19T14:43:07;17.00;90.40
41256;DHT22;26989;45.524;10.938;2023-03-19T14:45:58;17.00;90.10
41256;DHT22;26989;45.524;10.938;2023-03-19T14:51:52;16.80;90.40
41256;DHT22;26989;45.524;10.938;2023-03-19T14:56:56;16.70;90.10
41256;DHT22;26989;45.524;10.938;2023-03-19T14:59:23;16.60;90.00
41256;DHT22;26989;45.524;10.938;2023-03-19T15:01:52;16.50;90.00
41256;DHT22;26989;45.524;10.938;2023-03-19T15:04:21;16.40;90.10
41256;DHT22;26989;45.524;10.938;2023-03-19T15:06:53;16.40;90.40
41256;DHT22;26989;45.524;10.938;2023-03-19T15:09:27;16.20;90.30
41256;DHT22;26989;45.524;10.938;2023-03-19T15:17:38;16.00;90.10
41256;DHT22;26989;45.524;10.938;2023-03-19T15:20:18;15.90;90.20
41256;DHT22;26989;45.524;10.938;2023-03-19T15:22:59;15.80;90.30
41256;DHT22;26989;45.524;10.938;2023-03-19T15:25:26;15.80;90.30
41256;DHT22;26989;45.524;10.938;2023-03-19T15:28:11;15.70;90.10
41256;DHT22;26989;45.524;10.938;2023-03-19T15:30:39;15.60;90.40
41256;DHT22;26989;45.524;10.938;2023-03-19T15:33:32;15.50;90.80
41256;DHT22;26989;45.524;10.938;2023-03-19T15:38:59;15.50;90.90
41256;DHT22;26989;45.524;10.938;2023-03-19T15:41:31;15.40;91.00
41256;DHT22;26989;45.524;10.938;2023-03-19T15:44:01;15.40;91.10
41256;DHT22;26989;45.524;10.938;2023-03-19T15:46:32;15.30;91.20
41256;DHT22;26989;45.524;10.938;2023-03-19T15:51:43;15.00;92.00
41256;DHT22;26989;45.524;10.938;2023-03-19T15:54:12;14.80;91.90
41256;DHT22;26989;45.524;10.938;2023-03-19T15:56:39;14.70;92.90
41256;DHT22;26989;45.524;10.938;2023-03-19T15:59:06;14.60;93.10
41256;DHT22;26989;45.524;10.938;2023-03-19T16:01:33;14.60;93.30
41256;DHT22;26989;45.524;10.938;2023-03-19T16:04:03;14.60;93.50
41256;DHT22;26989;45.524;10.938;2023-03-19T16:06:35;14.50;93.60
41256;DHT22;26989;45.524;10.938;2023-03-19T16:09:22;14.50;93.60
41256;DHT22;26989;45.524;10.938;2023-03-19T16:11:50;14.40;93.70
41256;DHT22;26989;45.524;10.938;2023-03-19T16:14:26;14.40;93.80
41256;DHT22;26989;45.524;10.938;2023-03-19T16:17:13;14.30;93.80
41256;DHT22;26989;45.524;10.938;2023-03-19T16:19:54;14.20;93.90
41256;DHT22;26989;45.524;10.938;2023-03-19T16:22:29;14.10;94.10
41256;DHT22;26989;45.524;10.938;2023-03-19T16:24:57;14.10;94.40
41256;DHT22;26989;45.524;10.938;2023-03-19T16:30:03;14.00;95.20
41256;DHT22;26989;45.524;10.938;2023-03-19T16:32:38;14.00;95.60
41256;DHT22;26989;45.524;10.938;2023-03-19T16:35:16;14.00;95.80
41256;DHT22;26989;45.524;10.938;2023-03-19T16:37:46;13.90;96.00
41256;DHT22;26989;45.524;10.938;2023-03-19T16:45:25;13.70;96.50
41256;DHT22;26989;45.524;10.938;2023-03-19T16:47:56;13.60;96.50
41256;DHT22;26989;45.524;10.938;2023-03-19T16:50:38;13.60;96.70
41256;DHT22;26989;45.524;10.938;2023-03-19T16:53:22;13.50;96.80
41256;DHT22;26989;45.524;10.938;2023-03-19T16:55:50;13.40;96.90
41256;DHT22;26989;45.524;10.938;2023-03-19T16:58:32;13.40;97.00
41256;DHT22;26989;45.524;10.938;2023-03-19T17:01:00;13.40;97.10
41256;DHT22;26989;45.524;10.938;2023-03-19T17:03:27;13.30;97.10
41256;DHT22;26989;45.524;10.938;2023-03-19T17:05:56;13.30;97.10
41256;DHT22;26989;45.524;10.938;2023-03-19T17:08:23;13.30;97.10
41256;DHT22;26989;45.524;10.938;2023-03-19T17:10:52;13.20;97.20
41256;DHT22;26989;45.524;10.938;2023-03-19T17:13:27;13.20;97.20
41256;DHT22;26989;45.524;10.938;2023-03-19T17:15:58;13.20;97.20
41256;DHT22;26989;45.524;10.938;2023-03-19T17:18:29;13.10;97.20
41256;DHT22;26989;45.524;10.938;2023-03-19T17:21:13;13.10;97.20
41256;DHT22;26989;45.524;10.938;2023-03-19T17:23:42;13.10;97.20
41256;DHT22;26989;45.524;10.938;2023-03-19T17:26:19;13.10;97.30
41256;DHT22;26989;45.524;10.938;2023-03-19T17:28:47;13.10;97.40
41256;DHT22;26989;45.524;10.938;2023-03-19T17:31:23;13.10;97.50
41256;DHT22;26989;45.524;10.938;2023-03-19T17:33:52;13.00;97.70
41256;DHT22;26989;45.524;10.938;2023-03-19T17:36:22;13.00;97.70